Time;durP1;ratioP1;P1;durP2;ratioP2;P2;SDS_P1;SDS_P2;PMS_P1;PMS_P2;Temp;Humidity;BMP_temperature;BMP_pressure;BME280_temperature;BME280_humidity;BME280_pressure;Samples;Min_cycle;Max_cycle;Signal;HPM_P1;HPM_P2
2021/12/03 00:02:01;;;;;;;;;;;;;;;;;;5033448;28;19921;-76
2021/12/03 00:04:26;;;;;;;;;;;;;;;;;;5015841;28;19925;-76
2021/12/03 00:06:51;;;;;;;;;;;;;;;;;;5014337;28;19925;-75
2021/12/03 00:09:19;;;;;;;;;;;;;;;;;;5038021;28;19928;-76
2021/12/03 00:11:44;;;;;;;;;;;;;;;;;;5025325;28;20364;-76
2021/12/03 00:14:09;;;;;;;;;;;;;;;;;;5042298;28;19921;-76
2021/12/03 00:16:37;;;;;;;;;;;;;;;;;;5042131;28;19917;-76
2021/12/03 00:19:05;;;;;;;;;;;;;;;;;;5035287;28;19921;-76
2021/12/03 00:21:30;;;;;;;;;;;;;;;;;;5033190;28;19917;-76
2021/12/03 00:23:56;;;;;;;;;;;;;;;;;;5033258;28;20255;-77
2021/12/03 00:26:21;;;;;;;;;;;;;;;;;;4999049;28;19929;-76
2021/12/03 00:28:46;;;;;;;;;;;;;;;;;;5033125;28;19944;-77
2021/12/03 00:31:15;;;;;;;;;;;;;;;;;;5033354;28;19920;-76
2021/12/03 00:33:40;;;;;;;;;;;;;;;;;;5016399;28;19962;-76
2021/12/03 00:36:06;;;;;;;;;;;;;;;;;;5036325;28;20023;-76
2021/12/03 00:38:36;;;;;;;;;;;;;;;;;;5039318;28;19947;-77
2021/12/03 00:41:04;;;;;;;;;;;;;;;;;;5042031;28;19940;-77
2021/12/03 00:43:29;;;;;;;;;;;;;;;;;;5024036;28;19935;-77
2021/12/03 00:46:04;;;;;;;;;;;;;;;;;;5034197;28;20051;-77
2021/12/03 00:48:29;;;;;;;;;;;;;;;;;;5031912;28;19960;-77
2021/12/03 00:50:54;;;;;;;;;;;;;;;;;;5015893;28;21194;-77
2021/12/03 00:53:20;;;;;;;;;;;;;;;;;;5015240;28;20028;-77
2021/12/03 00:55:45;;;;;;;;;;;;;;;;;;5035435;28;19921;-77
2021/12/03 00:58:10;;;;;;;;;;;;;;;;;;5036675;28;19925;-77
2021/12/03 01:00:35;;;;;;;;;;;;;;;;;;5036929;28;19932;-77
2021/12/03 01:03:01;;;;;;;;;;;;;;;;;;5036413;28;19921;-76
2021/12/03 01:05:28;;;;;;;;;;;;;;;;;;5019344;28;19932;-77
2021/12/03 01:07:54;;;;;;;;;;;;;;;;;;5019310;28;19928;-78
2021/12/03 01:10:19;;;;;;;;;;;;;;;;;;5036965;28;19928;-78
2021/12/03 01:12:44;;;;;;;;;;;;;;;;;;5002826;28;19929;-78
2021/12/03 01:15:13;;;;;;;;;;;;;;;;;;5036803;28;19921;-78
2021/12/03 01:17:38;;;;;;;;;;;;;;;;;;5036686;28;19921;-79
2021/12/03 01:20:06;;;;;;;;;;;;;;;;;;5036518;28;20485;-79
2021/12/03 01:22:31;;;;;;;;;;;;;;;;;;5034473;28;19933;-78
2021/12/03 01:24:57;;;;;;;;;;;;;;;;;;5018697;28;20266;-79
2021/12/03 01:27:25;;;;;;;;;;;;;;;;;;5036320;28;19921;-78
2021/12/03 01:29:52;;;;;;;;;;;;;;;;;;5033837;28;19982;-78
2021/12/03 01:32:17;;;;;;;;;;;;;;;;;;5019232;28;20016;-76
2021/12/03 01:34:43;;;;;;;;;;;;;;;;;;5018971;28;20316;-77
2021/12/03 01:37:08;;;;;;;;;;;;;;;;;;5036739;28;20422;-77
2021/12/03 01:39:35;;;;;;;;;;;;;;;;;;5036293;28;20367;-77
2021/12/03 01:42:01;;;;;;;;;;;;;;;;;;5036369;28;19922;-76
2021/12/03 01:44:28;;;;;;;;;;;;;;;;;;5036199;28;20254;-76
2021/12/03 01:46:54;;;;;;;;;;;;;;;;;;5018746;28;19921;-77
2021/12/03 01:49:19;;;;;;;;;;;;;;;;;;5035970;28;19931;-76
2021/12/03 01:51:44;;;;;;;;;;;;;;;;;;5000832;28;20118;-76
2021/12/03 01:54:10;;;;;;;;;;;;;;;;;;5018315;28;19921;-77
2021/12/03 01:56:37;;;;;;;;;;;;;;;;;;5018477;28;19921;-78
2021/12/03 01:59:03;;;;;;;;;;;;;;;;;;5002546;28;19917;-77
2021/12/03 02:01:33;;;;;;;;;;;;;;;;;;5035632;28;19982;-77
2021/12/03 02:04:01;;;;;;;;;;;;;;;;;;5003154;28;20295;-77
2021/12/03 02:06:31;;;;;;;;;;;;;;;;;;5016815;28;19948;-77
2021/12/03 02:08:59;;;;;;;;;;;;;;;;;;5035522;28;20015;-77
2021/12/03 02:11:26;;;;;;;;;;;;;;;;;;5035104;28;20285;-77
2021/12/03 02:13:51;;;;;;;;;;;;;;;;;;5016020;28;19968;-77
2021/12/03 02:16:17;;;;;;;;;;;;;;;;;;5036200;28;19967;-77
2021/12/03 02:18:42;;;;;;;;;;;;;;;;;;5016979;28;19920;-77
2021/12/03 02:21:08;;;;;;;;;;;;;;;;;;5035395;28;19921;-77
2021/12/03 02:23:33;;;;;;;;;;;;;;;;;;5035387;28;19982;-76
2021/12/03 02:25:59;;;;;;;;;;;;;;;;;;5035398;28;19921;-76
2021/12/03 02:28:25;;;;;;;;;;;;;;;;;;5017370;28;19928;-76
2021/12/03 02:30:51;;;;;;;;;;;;;;;;;;5032863;28;19917;-76
2021/12/03 02:33:16;;;;;;;;;;;;;;;;;;5035437;28;20246;-77
2021/12/03 02:35:43;;;;;;;;;;;;;;;;;;5035213;28;19928;-77
2021/12/03 02:38:08;;;;;;;;;;;;;;;;;;5035189;28;19991;-78
2021/12/03 02:40:33;;;;;;;;;;;;;;;;;;5034657;28;19930;-77
2021/12/03 02:42:59;;;;;;;;;;;;;;;;;;5034847;28;19940;-77
2021/12/03 02:45:24;;;;;;;;;;;;;;;;;;5035274;28;19929;-76
2021/12/03 02:47:50;;;;;;;;;;;;;;;;;;5034872;28;19932;-77
2021/12/03 02:50:16;;;;;;;;;;;;;;;;;;5035049;28;19921;-77
2021/12/03 02:52:41;;;;;;;;;;;;;;;;;;5034732;28;20003;-76
2021/12/03 02:55:07;;;;;;;;;;;;;;;;;;5034601;28;19984;-76
2021/12/03 02:57:32;;;;;;;;;;;;;;;;;;5017572;28;19978;-76
2021/12/03 02:59:57;;;;;;;;;;;;;;;;;;5034596;28;19975;-76
2021/12/03 03:02:22;;;;;;;;;;;;;;;;;;5032211;28;19921;-76
2021/12/03 03:04:48;;;;;;;;;;;;;;;;;;5033363;28;19937;-76
2021/12/03 03:07:13;;;;;;;;;;;;;;;;;;5015778;28;20381;-77
2021/12/03 03:09:43;;;;;;;;;;;;;;;;;;5033815;28;19928;-77
2021/12/03 03:12:08;;;;;;;;;;;;;;;;;;5034212;28;19921;-77
2021/12/03 03:14:33;;;;;;;;;;;;;;;;;;5034696;28;19921;-77
2021/12/03 03:17:01;;;;;;;;;;;;;;;;;;5034453;28;19921;-77
2021/12/03 03:19:26;;;;;;;;;;;;;;;;;;5016327;28;20350;-76
2021/12/03 03:21:56;;;;;;;;;;;;;;;;;;5034529;28;19963;-77
2021/12/03 03:24:21;;;;;;;;;;;;;;;;;;5034208;28;19929;-75
2021/12/03 03:26:47;;;;;;;;;;;;;;;;;;5017088;28;20432;-75
2021/12/03 03:29:14;;;;;;;;;;;;;;;;;;5016803;28;19983;-75
2021/12/03 03:31:39;;;;;;;;;;;;;;;;;;4997315;28;19921;-75
2021/12/03 03:34:04;;;;;;;;;;;;;;;;;;5003504;28;19955;-75
2021/12/03 03:36:33;;;;;;;;;;;;;;;;;;5034002;28;19929;-75
2021/12/03 03:38:59;;;;;;;;;;;;;;;;;;5034543;28;19974;-75
2021/12/03 03:41:24;;;;;;;;;;;;;;;;;;5034045;28;19925;-75
2021/12/03 03:43:49;;;;;;;;;;;;;;;;;;5016967;28;19933;-76
2021/12/03 03:46:14;;;;;;;;;;;;;;;;;;5033963;28;20365;-76
2021/12/03 03:48:43;;;;;;;;;;;;;;;;;;5016676;28;19921;-77
2021/12/03 03:51:08;;;;;;;;;;;;;;;;;;5016644;28;19947;-75
2021/12/03 03:53:33;;;;;;;;;;;;;;;;;;5034051;28;19921;-75
2021/12/03 03:55:58;;;;;;;;;;;;;;;;;;5034246;28;19983;-75
2021/12/03 03:58:26;;;;;;;;;;;;;;;;;;5016551;28;19925;-76
2021/12/03 04:00:51;;;;;;;;;;;;;;;;;;5017043;28;19957;-75
2021/12/03 04:03:17;;;;;;;;;;;;;;;;;;5033896;28;19971;-76
2021/12/03 04:05:42;;;;;;;;;;;;;;;;;;5016341;28;19983;-75
2021/12/03 04:08:07;;;;;;;;;;;;;;;;;;5016107;28;19921;-77
2021/12/03 04:10:33;;;;;;;;;;;;;;;;;;5016458;28;19932;-76
2021/12/03 04:12:58;;;;;;;;;;;;;;;;;;5033724;28;19922;-76
2021/12/03 04:15:23;;;;;;;;;;;;;;;;;;5016513;28;19986;-76
2021/12/03 04:17:49;;;;;;;;;;;;;;;;;;5033850;28;19996;-76
2021/12/03 04:20:17;;;;;;;;;;;;;;;;;;5016443;28;20357;-75
2021/12/03 04:22:42;;;;;;;;;;;;;;;;;;5033237;28;19928;-76
2021/12/03 04:25:09;;;;;;;;;;;;;;;;;;5033898;28;20266;-76
2021/12/03 04:27:34;;;;;;;;;;;;;;;;;;5016261;28;19917;-77
2021/12/03 04:29:59;;;;;;;;;;;;;;;;;;5033370;28;19979;-76
2021/12/03 04:32:25;;;;;;;;;;;;;;;;;;5033714;28;19921;-75
2021/12/03 04:34:55;;;;;;;;;;;;;;;;;;5033470;28;19921;-75
2021/12/03 04:37:21;;;;;;;;;;;;;;;;;;5016391;28;19925;-76
2021/12/03 04:39:46;;;;;;;;;;;;;;;;;;5015167;28;20422;-76
2021/12/03 04:42:11;;;;;;;;;;;;;;;;;;5016156;28;19948;-76
2021/12/03 04:44:39;;;;;;;;;;;;;;;;;;5015934;28;19921;-76
2021/12/03 04:47:05;;;;;;;;;;;;;;;;;;5015929;28;19925;-76
2021/12/03 04:49:30;;;;;;;;;;;;;;;;;;5016306;28;19922;-76
2021/12/03 04:51:56;;;;;;;;;;;;;;;;;;5034076;28;19921;-76
2021/12/03 04:54:21;;;;;;;;;;;;;;;;;;5033261;28;19953;-76
2021/12/03 04:56:46;;;;;;;;;;;;;;;;;;5033477;28;19929;-77
2021/12/03 04:59:12;;;;;;;;;;;;;;;;;;5033952;28;19921;-76
2021/12/03 05:01:40;;;;;;;;;;;;;;;;;;5032073;28;20255;-76
2021/12/03 05:04:05;;;;;;;;;;;;;;;;;;5032345;28;19921;-77
2021/12/03 05:06:52;;;;;;;;;;;;;;;;;;5031944;28;19921;-76
2021/12/03 05:09:18;;;;;;;;;;;;;;;;;;5008974;28;20261;-76
2021/12/03 05:11:44;;;;;;;;;;;;;;;;;;5014909;28;19971;-76
2021/12/03 05:14:09;;;;;;;;;;;;;;;;;;5015685;28;19921;-76
2021/12/03 05:16:36;;;;;;;;;;;;;;;;;;5033587;28;19978;-76
2021/12/03 05:19:04;;;;;;;;;;;;;;;;;;5032572;28;19921;-76
2021/12/03 05:21:29;;;;;;;;;;;;;;;;;;5033611;28;19921;-76
2021/12/03 05:23:54;;;;;;;;;;;;;;;;;;5033649;28;19929;-75
2021/12/03 05:26:19;;;;;;;;;;;;;;;;;;5032508;28;19921;-75
2021/12/03 05:28:45;;;;;;;;;;;;;;;;;;5033170;28;19975;-76
2021/12/03 05:31:12;;;;;;;;;;;;;;;;;;5032906;28;20020;-75
2021/12/03 05:33:38;;;;;;;;;;;;;;;;;;5032773;28;20008;-76
2021/12/03 05:36:05;;;;;;;;;;;;;;;;;;5032865;28;20017;-76
2021/12/03 05:38:31;;;;;;;;;;;;;;;;;;5032858;28;19984;-76
2021/12/03 05:40:58;;;;;;;;;;;;;;;;;;5016847;28;20012;-76
2021/12/03 05:43:23;;;;;;;;;;;;;;;;;;5036121;28;19978;-78
2021/12/03 05:45:49;;;;;;;;;;;;;;;;;;5036686;28;20007;-77
2021/12/03 05:48:14;;;;;;;;;;;;;;;;;;5036066;28;19936;-76
2021/12/03 05:50:40;;;;;;;;;;;;;;;;;;5036137;28;19992;-75
2021/12/03 05:53:05;;;;;;;;;;;;;;;;;;5036529;28;19948;-76
2021/12/03 05:55:33;;;;;;;;;;;;;;;;;;5019334;28;20274;-77
2021/12/03 05:57:58;;;;;;;;;;;;;;;;;;5019459;28;19921;-76
2021/12/03 06:00:26;;;;;;;;;;;;;;;;;;5036264;28;19921;-76
2021/12/03 06:02:52;;;;;;;;;;;;;;;;;;5036122;28;20015;-76
2021/12/03 06:05:21;;;;;;;;;;;;;;;;;;5018586;28;20346;-76
2021/12/03 06:07:46;;;;;;;;;;;;;;;;;;5036021;28;19963;-76
2021/12/03 06:10:11;;;;;;;;;;;;;;;;;;5036405;28;19929;-76
2021/12/03 06:12:37;;;;;;;;;;;;;;;;;;5036817;28;19975;-77
2021/12/03 06:15:02;;;;;;;;;;;;;;;;;;5036435;28;19968;-76
2021/12/03 06:17:27;;;;;;;;;;;;;;;;;;5036276;28;19921;-76
2021/12/03 06:19:53;;;;;;;;;;;;;;;;;;5002190;28;19921;-75
2021/12/03 06:22:18;;;;;;;;;;;;;;;;;;5035564;28;19970;-75
2021/12/03 06:24:43;;;;;;;;;;;;;;;;;;5035850;28;19928;-76
2021/12/03 06:27:08;;;;;;;;;;;;;;;;;;5017957;28;19921;-75
2021/12/03 06:29:34;;;;;;;;;;;;;;;;;;5018059;28;19925;-76
2021/12/03 06:31:59;;;;;;;;;;;;;;;;;;5035346;28;19924;-76
2021/12/03 06:34:24;;;;;;;;;;;;;;;;;;5035867;28;19929;-76
2021/12/03 06:36:49;;;;;;;;;;;;;;;;;;5017898;28;19945;-76
2021/12/03 06:39:15;;;;;;;;;;;;;;;;;;5035893;28;19921;-76
2021/12/03 06:41:42;;;;;;;;;;;;;;;;;;5017708;28;19947;-76
2021/12/03 06:44:08;;;;;;;;;;;;;;;;;;5035387;28;19921;-76
2021/12/03 06:46:36;;;;;;;;;;;;;;;;;;5018067;28;19971;-76
2021/12/03 06:49:02;;;;;;;;;;;;;;;;;;5034935;28;19968;-77
2021/12/03 06:51:27;;;;;;;;;;;;;;;;;;5017648;28;20373;-77
2021/12/03 06:54:02;;;;;;;;;;;;;;;;;;5038871;28;19994;-78
2021/12/03 06:56:43;;;;;;;;;;;;;;;;;;5019155;28;20008;-79
2021/12/03 06:59:09;;;;;;;;;;;;;;;;;;5034750;28;20004;-78
2021/12/03 07:01:34;;;;;;;;;;;;;;;;;;5017024;28;20016;-77
2021/12/03 07:03:59;;;;;;;;;;;;;;;;;;5034976;28;20009;-86
2021/12/03 07:06:24;;;;;;;;;;;;;;;;;;5000346;28;19968;-84
2021/12/03 07:08:50;;;;;;;;;;;;;;;;;;5034589;28;19921;-83
2021/12/03 07:11:15;;;;;;;;;;;;;;;;;;5040422;28;19921;-77
2021/12/03 07:13:40;;;;;;;;;;;;;;;;;;5034470;28;20000;-78
2021/12/03 07:16:17;;;;;;;;;;;;;;;;;;5036751;28;20357;-83
2021/12/03 07:18:45;;;;;;;;;;;;;;;;;;5031916;28;19932;-78
2021/12/03 07:21:13;;;;;;;;;;;;;;;;;;5034699;28;19967;-82
2021/12/03 07:23:38;;;;;;;;;;;;;;;;;;5016817;28;19972;-80
2021/12/03 07:26:03;;;;;;;;;;;;;;;;;;5017096;28;20299;-79
2021/12/03 07:28:29;;;;;;;;;;;;;;;;;;5017192;28;19921;-79
2021/12/03 07:30:54;;;;;;;;;;;;;;;;;;5034196;28;19952;-79
2021/12/03 07:33:20;;;;;;;;;;;;;;;;;;5034621;28;19921;-79
2021/12/03 07:35:48;;;;;;;;;;;;;;;;;;5034692;28;19929;-80
2021/12/03 07:38:15;;;;;;;;;;;;;;;;;;5034085;28;19931;-79
2021/12/03 07:40:41;;;;;;;;;;;;;;;;;;5034765;28;19932;-80
2021/12/03 07:43:06;;;;;;;;;;;;;;;;;;5016926;28;19917;-79
2021/12/03 07:45:31;;;;;;;;;;;;;;;;;;5034639;28;19921;-79
2021/12/03 07:47:56;;;;;;;;;;;;;;;;;;5034511;28;19931;-80
2021/12/03 07:50:22;;;;;;;;;;;;;;;;;;5034254;28;19960;-79
2021/12/03 07:52:49;;;;;;;;;;;;;;;;;;5034442;28;19932;-79
2021/12/03 07:55:14;;;;;;;;;;;;;;;;;;5034813;28;19978;-80
2021/12/03 07:57:42;;;;;;;;;;;;;;;;;;5034294;28;19925;-79
2021/12/03 08:00:08;;;;;;;;;;;;;;;;;;5034397;28;19917;-79
2021/12/03 08:02:33;;;;;;;;;;;;;;;;;;5033665;28;20067;-79
2021/12/03 08:04:58;;;;;;;;;;;;;;;;;;5016464;28;19964;-79
2021/12/03 08:07:23;;;;;;;;;;;;;;;;;;5016546;28;20362;-79
2021/12/03 08:09:49;;;;;;;;;;;;;;;;;;5016699;28;19931;-80
2021/12/03 08:12:14;;;;;;;;;;;;;;;;;;5016451;28;20285;-79
2021/12/03 08:14:39;;;;;;;;;;;;;;;;;;5033771;28;20350;-79
2021/12/03 08:17:05;;;;;;;;;;;;;;;;;;5016335;28;19921;-80
2021/12/03 08:19:30;;;;;;;;;;;;;;;;;;5033771;28;19921;-79
2021/12/03 08:21:55;;;;;;;;;;;;;;;;;;5034258;28;20258;-79
2021/12/03 08:24:20;;;;;;;;;;;;;;;;;;5034715;28;19921;-79
2021/12/03 08:26:46;;;;;;;;;;;;;;;;;;5033946;28;19932;-79
2021/12/03 08:29:11;;;;;;;;;;;;;;;;;;5016739;28;19932;-80
2021/12/03 08:31:37;;;;;;;;;;;;;;;;;;5033784;28;20007;-80
2021/12/03 08:34:02;;;;;;;;;;;;;;;;;;5033639;28;19940;-78
2021/12/03 08:36:28;;;;;;;;;;;;;;;;;;5033786;28;19921;-79
2021/12/03 08:38:53;;;;;;;;;;;;;;;;;;5034170;28;20250;-79
2021/12/03 08:41:21;;;;;;;;;;;;;;;;;;5033843;28;19929;-79
2021/12/03 08:43:47;;;;;;;;;;;;;;;;;;5015997;28;19932;-78
2021/12/03 08:46:18;;;;;;;;;;;;;;;;;;5033600;28;19929;-79
2021/12/03 08:48:46;;;;;;;;;;;;;;;;;;5033123;28;19917;-78
2021/12/03 08:51:26;;;;;;;;;;;;;;;;;;5033553;28;19968;-79
2021/12/03 08:56:35;;;;;;;;;;;;;;;;;;5014187;28;19929;-79
2021/12/03 08:59:01;;;;;;;;;;;;;;;;;;5014467;28;19922;-79
2021/12/03 09:01:26;;;;;;;;;;;;;;;;;;5013953;28;19921;-79
2021/12/03 09:03:53;;;;;;;;;;;;;;;;;;4996709;28;20358;-79
2021/12/03 09:06:18;;;;;;;;;;;;;;;;;;5013696;28;20260;-78
2021/12/03 09:08:43;;;;;;;;;;;;;;;;;;4996666;28;19940;-79
2021/12/03 09:11:09;;;;;;;;;;;;;;;;;;5033169;28;19917;-79
2021/12/03 09:13:34;;;;;;;;;;;;;;;;;;5033242;28;20007;-79
2021/12/03 09:16:09;;;;;;;;;;;;;;;;;;5034493;28;20043;-80
2021/12/03 09:18:40;;;;;;;;;;;;;;;;;;5021088;28;19964;-79
2021/12/03 09:21:08;;;;;;;;;;;;;;;;;;5037121;28;19968;-79
2021/12/03 09:26:16;;;;;;;;;;;;;;;;;;5037394;28;19968;-79
2021/12/03 09:28:56;;;;;;;;;;;;;;;;;;5019971;28;19921;-77
2021/12/03 09:31:22;;;;;;;;;;;;;;;;;;5036632;28;20281;-78
2021/12/03 09:33:49;;;;;;;;;;;;;;;;;;5036801;28;19979;-78
2021/12/03 09:36:14;;;;;;;;;;;;;;;;;;5037049;28;19925;-78
2021/12/03 09:38:40;;;;;;;;;;;;;;;;;;5036700;28;20442;-78
2021/12/03 09:41:08;;;;;;;;;;;;;;;;;;5036295;28;20030;-78
2021/12/03 09:43:34;;;;;;;;;;;;;;;;;;5036422;28;19921;-78
2021/12/03 09:46:13;;;;;;;;;;;;;;;;;;5036609;28;19990;-79
2021/12/03 09:51:23;;;;;;;;;;;;;;;;;;5036308;28;20362;-79
2021/12/03 09:56:33;;;;;;;;;;;;;;;;;;5021573;28;19924;-79
2021/12/03 10:01:53;;;;;;;;;;;;;;;;;;5021783;28;19928;-78
2021/12/03 10:17:45;;;;;;;;;;;;;;;;;;5036404;28;20345;-79
2021/12/03 10:20:10;;;;;;;;;;;;;;;;;;5022738;28;19921;-79
2021/12/03 10:23:14;;;;;;;;;;;;;;;;;;5034780;28;19921;-80
2021/12/03 10:36:13;;;;;;;;;;;;;;;;;;4984781;28;19979;-80
2021/12/03 10:38:52;;;;;;;;;;;;;;;;;;4998067;28;19922;-79
2021/12/03 10:41:33;;;;;;;;;;;;;;;;;;5037605;28;19928;-80
2021/12/03 10:44:28;;;;;;;;;;;;;;;;;;5038811;28;19929;-79
2021/12/03 11:19:25;;;;;;;;;;;;;;;;;;5054980;28;19991;-80
2021/12/03 11:35:10;;;;;;;;;;;;;;;;;;5019862;28;19931;-80
2021/12/03 11:46:20;;;;;;;;;;;;;;;;;;5046113;28;19936;-80
2021/12/03 12:02:51;;;;;;;;;;;;;;;;;;4989638;28;19937;-80
2021/12/03 12:05:41;;;;;;;;;;;;;;;;;;5033595;28;20422;-79
2021/12/03 12:09:04;;;;;;;;;;;;;;;;;;5019456;28;19921;-80
2021/12/03 14:19:12;;;;;;;;;;;;;;;;;;5026314;28;19932;-79
2021/12/03 14:39:28;;;;;;;;;;;;;;;;;;5016817;28;19929;-80
2021/12/03 14:42:03;;;;;;;;;;;;;;;;;;5036872;28;19928;-80
2021/12/03 14:44:41;;;;;;;;;;;;;;;;;;5051803;28;20015;-81
2021/12/03 14:47:37;;;;;;;;;;;;;;;;;;5034707;28;19943;-81
2021/12/03 14:53:10;;;;;;;;;;;;;;;;;;5020418;28;19987;-80
2021/12/03 14:55:36;;;;;;;;;;;;;;;;;;5035323;28;19983;-81
2021/12/03 14:58:02;;;;;;;;;;;;;;;;;;5035094;28;19921;-80
2021/12/03 15:00:34;;;;;;;;;;;;;;;;;;5017802;28;19929;-81
2021/12/03 15:08:27;;;;;;;;;;;;;;;;;;5035244;28;20327;-82
2021/12/03 15:18:57;;;;;;;;;;;;;;;;;;5032547;28;19932;-79
2021/12/03 15:29:58;;;;;;;;;;;;;;;;;;5043823;28;19939;-84
2021/12/03 15:40:36;;;;;;;;;;;;;;;;;;5034394;28;19921;-84
2021/12/03 15:54:28;;;;;;;;;;;;;;;;;;5014499;28;20266;-80
2021/12/03 15:57:00;;;;;;;;;;;;;;;;;;5029921;28;20004;-80
2021/12/03 16:05:13;;;;;;;;;;;;;;;;;;5019541;28;19936;-84
2021/12/03 16:10:39;;;;;;;;;;;;;;;;;;5034553;28;19917;-83
2021/12/03 16:13:22;;;;;;;;;;;;;;;;;;5002805;28;19935;-83
2021/12/03 16:16:27;;;;;;;;;;;;;;;;;;5033608;28;19943;-82
2021/12/03 16:27:49;;;;;;;;;;;;;;;;;;5019217;28;19944;-83
2021/12/03 16:54:15;;;;;;;;;;;;;;;;;;4992418;28;20008;-86
2021/12/03 16:56:46;;;;;;;;;;;;;;;;;;4991998;28;19933;-84
2021/12/03 16:59:14;;;;;;;;;;;;;;;;;;4992054;28;20029;-83
2021/12/03 17:01:44;;;;;;;;;;;;;;;;;;4991932;28;20452;-82
2021/12/03 17:56:33;;;;;;;;;;;;;;;;;;5021352;28;19964;-82
2021/12/03 18:01:50;;;;;;;;;;;;;;;;;;5037557;28;19950;-82
2021/12/03 18:04:36;;;;;;;;;;;;;;;;;;5036455;28;19972;-82
2021/12/03 18:45:01;;;;;;;;;;;;;;;;;;4974750;28;19944;-80
2021/12/03 18:52:44;;;;;;;;;;;;;;;;;;5020417;28;19980;-85
2021/12/03 18:55:16;;;;;;;;;;;;;;;;;;5020091;28;20291;-88
2021/12/03 18:57:45;;;;;;;;;;;;;;;;;;5002677;28;19948;-88
2021/12/03 19:00:18;;;;;;;;;;;;;;;;;;5018445;28;20075;-88
2021/12/03 19:02:47;;;;;;;;;;;;;;;;;;5033930;28;19979;-89
2021/12/03 19:05:20;;;;;;;;;;;;;;;;;;5035634;28;19932;-91
2021/12/03 19:10:30;;;;;;;;;;;;;;;;;;5018255;28;20011;-85
2021/12/03 19:13:05;;;;;;;;;;;;;;;;;;5032893;28;19953;-87
2021/12/03 19:15:31;;;;;;;;;;;;;;;;;;5035104;28;19920;-82
2021/12/03 19:18:01;;;;;;;;;;;;;;;;;;5034897;28;20059;-86
2021/12/03 19:20:28;;;;;;;;;;;;;;;;;;5043442;28;20261;-85
2021/12/03 19:22:56;;;;;;;;;;;;;;;;;;5037568;28;19933;-84
2021/12/03 19:25:22;;;;;;;;;;;;;;;;;;5044355;28;20325;-85
2021/12/03 19:27:49;;;;;;;;;;;;;;;;;;5006951;28;19916;-86
2021/12/03 19:30:19;;;;;;;;;;;;;;;;;;5042921;28;19921;-82
2021/12/03 19:32:44;;;;;;;;;;;;;;;;;;5034298;28;19921;-80
2021/12/03 19:35:09;;;;;;;;;;;;;;;;;;5033665;28;19975;-81
2021/12/03 19:37:36;;;;;;;;;;;;;;;;;;5034949;28;20297;-81
2021/12/03 19:40:05;;;;;;;;;;;;;;;;;;5034519;28;19921;-81
2021/12/03 19:42:35;;;;;;;;;;;;;;;;;;5034382;28;19925;-81
2021/12/03 19:45:04;;;;;;;;;;;;;;;;;;5034841;28;20309;-81
2021/12/03 19:47:33;;;;;;;;;;;;;;;;;;5017705;28;20312;-82
2021/12/03 19:52:42;;;;;;;;;;;;;;;;;;5034550;28;19921;-82
2021/12/03 19:55:07;;;;;;;;;;;;;;;;;;5034439;28;20378;-81
2021/12/03 19:57:33;;;;;;;;;;;;;;;;;;5016784;28;19956;-81
2021/12/03 19:59:58;;;;;;;;;;;;;;;;;;5034009;28;19999;-82
2021/12/03 20:02:23;;;;;;;;;;;;;;;;;;5034868;28;19953;-81
2021/12/03 20:04:49;;;;;;;;;;;;;;;;;;5034299;28;19965;-79
2021/12/03 20:07:15;;;;;;;;;;;;;;;;;;5034629;28;20007;-81
2021/12/03 20:09:46;;;;;;;;;;;;;;;;;;5034709;28;19921;-81
2021/12/03 20:12:16;;;;;;;;;;;;;;;;;;5033955;28;19925;-81
2021/12/03 20:14:44;;;;;;;;;;;;;;;;;;5033786;28;19921;-79
2021/12/03 20:17:20;;;;;;;;;;;;;;;;;;5034063;28;20266;-80
2021/12/03 20:19:55;;;;;;;;;;;;;;;;;;5033902;28;19987;-82
2021/12/03 20:22:35;;;;;;;;;;;;;;;;;;5033920;28;19921;-81
2021/12/03 20:25:30;;;;;;;;;;;;;;;;;;5033925;28;20358;-82
2021/12/03 20:28:01;;;;;;;;;;;;;;;;;;5033745;28;19971;-81
2021/12/03 20:30:40;;;;;;;;;;;;;;;;;;5016543;28;19987;-80
2021/12/03 20:38:17;;;;;;;;;;;;;;;;;;5034116;28;19921;-81
2021/12/03 20:40:43;;;;;;;;;;;;;;;;;;5033528;28;20338;-81
2021/12/03 20:43:26;;;;;;;;;;;;;;;;;;5016150;28;19921;-81
2021/12/03 20:47:05;;;;;;;;;;;;;;;;;;5033786;28;20235;-81
2021/12/03 20:51:52;;;;;;;;;;;;;;;;;;5033642;28;20019;-81
2021/12/03 20:54:23;;;;;;;;;;;;;;;;;;5033625;28;20326;-80
2021/12/03 21:10:11;;;;;;;;;;;;;;;;;;5033831;28;19970;-81
2021/12/03 21:12:46;;;;;;;;;;;;;;;;;;5018530;28;20349;-82
2021/12/03 21:15:22;;;;;;;;;;;;;;;;;;5037673;28;19968;-81
2021/12/03 21:18:05;;;;;;;;;;;;;;;;;;5021824;28;19979;-81
2021/12/03 21:20:33;;;;;;;;;;;;;;;;;;5037498;28;20377;-82
2021/12/03 21:23:02;;;;;;;;;;;;;;;;;;5020274;28;20003;-82
2021/12/03 21:25:32;;;;;;;;;;;;;;;;;;5003692;28;19970;-80
2021/12/03 21:28:04;;;;;;;;;;;;;;;;;;5018660;28;19921;-80
2021/12/03 21:41:20;;;;;;;;;;;;;;;;;;5036672;28;19921;-82
2021/12/03 21:43:46;;;;;;;;;;;;;;;;;;5023341;28;20016;-81
2021/12/03 21:46:12;;;;;;;;;;;;;;;;;;5037049;28;19921;-82
2021/12/03 21:48:38;;;;;;;;;;;;;;;;;;5037012;28;20000;-82
2021/12/03 21:51:05;;;;;;;;;;;;;;;;;;5036674;28;20013;-82
2021/12/03 21:53:30;;;;;;;;;;;;;;;;;;5036693;28;19953;-81
2021/12/03 21:55:56;;;;;;;;;;;;;;;;;;5019110;28;19994;-82
2021/12/03 21:58:21;;;;;;;;;;;;;;;;;;4999120;28;19926;-82
2021/12/03 22:00:48;;;;;;;;;;;;;;;;;;5016663;28;19984;-82
2021/12/03 22:03:13;;;;;;;;;;;;;;;;;;5016524;28;20315;-82
2021/12/03 22:05:38;;;;;;;;;;;;;;;;;;5016737;28;19933;-81
2021/12/03 22:08:08;;;;;;;;;;;;;;;;;;5016668;28;20012;-81
2021/12/03 22:10:33;;;;;;;;;;;;;;;;;;5016676;28;19926;-81
2021/12/03 22:12:58;;;;;;;;;;;;;;;;;;5034845;28;19921;-81
2021/12/03 22:15:23;;;;;;;;;;;;;;;;;;5036509;28;20366;-81
2021/12/03 22:17:48;;;;;;;;;;;;;;;;;;5018887;28;20024;-81
2021/12/03 22:20:14;;;;;;;;;;;;;;;;;;5036021;28;20008;-81
2021/12/03 22:22:39;;;;;;;;;;;;;;;;;;5018338;28;19968;-82
2021/12/03 22:25:09;;;;;;;;;;;;;;;;;;5036498;28;20130;-81
2021/12/03 22:27:36;;;;;;;;;;;;;;;;;;5018724;28;19929;-81
2021/12/03 22:30:02;;;;;;;;;;;;;;;;;;5018426;28;19992;-81
2021/12/03 22:32:27;;;;;;;;;;;;;;;;;;5018372;28;20020;-81
2021/12/03 22:34:52;;;;;;;;;;;;;;;;;;5018529;28;19921;-81
2021/12/03 22:37:18;;;;;;;;;;;;;;;;;;5036323;28;19964;-83
2021/12/03 22:39:44;;;;;;;;;;;;;;;;;;5036243;28;19974;-81
2021/12/03 22:42:12;;;;;;;;;;;;;;;;;;5035613;28;20416;-81
2021/12/03 22:44:38;;;;;;;;;;;;;;;;;;5035879;28;19975;-81
2021/12/03 22:52:25;;;;;;;;;;;;;;;;;;4981219;28;19925;-81
2021/12/03 22:54:53;;;;;;;;;;;;;;;;;;5017969;28;19917;-81
2021/12/03 22:57:19;;;;;;;;;;;;;;;;;;5035283;28;19925;-80
2021/12/03 22:59:45;;;;;;;;;;;;;;;;;;5033768;28;19940;-81
2021/12/03 23:02:13;;;;;;;;;;;;;;;;;;5035343;28;19921;-80
2021/12/03 23:04:39;;;;;;;;;;;;;;;;;;5018004;28;20002;-82
2021/12/03 23:07:05;;;;;;;;;;;;;;;;;;5017877;28;19921;-82
2021/12/03 23:09:32;;;;;;;;;;;;;;;;;;5035365;28;19928;-82
2021/12/03 23:11:58;;;;;;;;;;;;;;;;;;5035386;28;19921;-82
2021/12/03 23:14:23;;;;;;;;;;;;;;;;;;5035661;28;20223;-82
2021/12/03 23:16:49;;;;;;;;;;;;;;;;;;5035179;28;19932;-82
2021/12/03 23:19:14;;;;;;;;;;;;;;;;;;5035287;28;19951;-80
2021/12/03 23:21:39;;;;;;;;;;;;;;;;;;5035041;28;20334;-81
2021/12/03 23:24:04;;;;;;;;;;;;;;;;;;5034545;28;19921;-81
2021/12/03 23:26:31;;;;;;;;;;;;;;;;;;5017602;28;19921;-81
2021/12/03 23:28:56;;;;;;;;;;;;;;;;;;5035079;28;20008;-82
2021/12/03 23:31:21;;;;;;;;;;;;;;;;;;5017491;28;19971;-82
2021/12/03 23:33:49;;;;;;;;;;;;;;;;;;5034971;28;20020;-81
2021/12/03 23:36:16;;;;;;;;;;;;;;;;;;5017841;28;19921;-82
2021/12/03 23:38:42;;;;;;;;;;;;;;;;;;5017591;28;19968;-81
2021/12/03 23:41:07;;;;;;;;;;;;;;;;;;5000902;28;19983;-82
2021/12/03 23:43:35;;;;;;;;;;;;;;;;;;5035046;28;19925;-82
2021/12/03 23:46:01;;;;;;;;;;;;;;;;;;5034646;28;19928;-82
2021/12/03 23:48:26;;;;;;;;;;;;;;;;;;5034541;28;19921;-82
2021/12/03 23:50:51;;;;;;;;;;;;;;;;;;5017081;28;20244;-82
2021/12/03 23:53:16;;;;;;;;;;;;;;;;;;5034544;28;20329;-81
2021/12/03 23:55:42;;;;;;;;;;;;;;;;;;5034849;28;20323;-82
2021/12/03 23:58:07;;;;;;;;;;;;;;;;;;5034990;28;20357;-82
